Strona główna
METAR-TAF:

METAR-TAF

Lotnisko :

Albert, Francja

Szerokość geograficzna: 49-58-21N, Długość geograficzna: 002-41-29E, wysokość: 111 m

METAR: brakujący

czas: 07:09 (06:09 UTC)

Prognoza

Raport powstał 1 godzina i 9 minut temu, godzina 05:00 UTC
Prognoza ważna od 21 godzina 06 UTC do 21 godzina 15 UTC
Wiatr 3 kt z kierunków zmiennych
Widzialność 10 km lub więcej
Rozproszone chmury na wysokości 1500 ft
Przerywane chmury na wysokości 11000 ft
Przejściowo
od 21 godzina 06 UTC do 21 godzina 11 UTC
Przerywane chmury na wysokości 800 ft
Stopniowe zmiany
od 21 godzina 11 UTC do 21 godzina 13 UTC
Wiatr 10 kt od południe
Zachmurzenie całkowite na wysokości 1000 ft
Przejściowo
od 21 godzina 10 UTC do 21 godzina 15 UTC
Widzialność: 2000 m
Zachmurzenie całkowite na wysokości 600 ft
deszcz, mżawka

TAF: LFAQ 210500Z 2106/2115 VRB03KT 9999 SCT015 BKN110 TEMPO 2106/2111 BKN008 BECMG 2111/2113 18010KT OVC010 TEMPO 2110/2115 2000 RADZ OVC006

Obserwacja i prognoza pogody dla ponad 4000 lotnisk (raport METAR i TAF).

Dostępne stacje oznaczono żółtymi i czerwonymi punktami na mapie.

Najedź kursorem aby zobaczyć nazwę stacji.

Kliknij aby zobaczyć obserwacje i prognozy pogody.

Aby zmienić mapę: kliknij na zielony przycisk z czarnym krzyżykiem, aby powiększyć; na zielony przycisk z myślnikiem, aby pomniejszyć; na zielone strzałki, aby przejść do map sąsiednich.


METAR-TAF: